EGPC

Wick Airport

Airport
ICAO code
EGPC
IATA Code
WIC
Summary
ICAO Region
EUR
ICAO Territory
Location

Wick, Scotland

Serving
Wick
Elevation
126 ft
Coordinates
58° 27' 29" N , 3° 5' 30" W
KCC
Metar
Observation
EGPC 261550Z AUTO 15018KT 9999 FEW039/// 11/09 Q1005
Station
Wick
Date/Time
2022-11-26 15:50:00
Wind direction
150°
Wind speed
18 kts
Lowest cloud amount
few clouds
Temperature
11°C
Dew point
9°C
Humidity
87%
QNH
1005 hPa
Weather condition
n/a

Description

Wick Airport is located north of the small town of Wick in Caithness at the north-eastern extremity of the mainland of Scotland.

Climatology

Temperate Marine climate/Oceanic climate (Köppen climate classification Cfb). Moderately cool summer and comparatively warm winter with a temperature range of only 14°C. Prevailing south-westerly winds from the Atlantic Ocean.

Runways

Designator Length Width Surface Rops
8/26 1036 45 ASP No/No
13/31 1825 45 ASP No/No

Airport map

Aerial View

SKYbrary Partners:

Safety knowledge contributed by: